Time;durP1;ratioP1;P1;durP2;ratioP2;P2;SDS_P1;SDS_P2;PMS_P1;PMS_P2;Temp;Humidity;BMP_temperature;BMP_pressure;BME280_temperature;BME280_humidity;BME280_pressure;Samples;Min_cycle;Max_cycle;Signal;HPM_P1;HPM_P2
2023/09/13 00:02:07;;;;;;;16.77;8.33;;;;;;;17.55;100.00;100559.53;6001606;28;20041;-68
2023/09/13 00:05:02;;;;;;;14.57;7.40;;;;;;;17.68;100.00;100550.75;6000623;28;20042;-69
2023/09/13 00:07:57;;;;;;;15.27;7.53;;;;;;;17.67;100.00;100536.50;6005896;28;20038;-69
2023/09/13 00:10:53;;;;;;;16.70;7.97;;;;;;;17.49;100.00;100527.25;6007057;28;20288;-69
2023/09/13 00:13:48;;;;;;;15.73;7.00;;;;;;;17.46;100.00;100496.31;6004359;28;20394;-69
2023/09/13 00:16:44;;;;;;;13.25;6.55;;;;;;;17.41;100.00;100490.69;6005713;28;20093;-68
2023/09/13 00:19:39;;;;;;;12.17;6.40;;;;;;;17.32;100.00;100472.25;6005636;28;20035;-68
2023/09/13 00:22:34;;;;;;;12.77;6.60;;;;;;;17.18;100.00;100460.63;6005654;28;20313;-69
2023/09/13 00:25:29;;;;;;;16.37;6.80;;;;;;;17.26;100.00;100468.50;6005230;28;20090;-69
2023/09/13 00:28:25;;;;;;;20.87;5.53;;;;;;;17.18;100.00;100463.28;5999125;28;20601;-69
2023/09/13 00:31:20;;;;;;;16.02;5.55;;;;;;;17.27;100.00;100471.00;6003706;28;20801;-69
2023/09/13 00:34:16;;;;;;;10.50;5.70;;;;;;;17.24;100.00;100487.47;6005044;28;20097;-69
2023/09/13 00:37:11;;;;;;;10.27;5.10;;;;;;;17.11;100.00;100470.47;6005343;28;20049;-69
2023/09/13 00:40:07;;;;;;;10.50;4.63;;;;;;;17.18;100.00;100466.81;6004925;28;20117;-69
2023/09/13 00:43:03;;;;;;;21.50;5.68;;;;;;;17.35;100.00;100480.75;6001149;28;20486;-70
2023/09/13 00:45:58;;;;;;;15.27;4.43;;;;;;;17.26;100.00;100487.28;5999561;28;20030;-69
2023/09/13 00:48:54;;;;;;;10.95;4.28;;;;;;;17.22;100.00;100486.03;5999218;28;20123;-69
2023/09/13 00:51:49;;;;;;;7.50;4.37;;;;;;;17.35;100.00;100504.03;6019200;28;20085;-69
2023/09/13 00:54:45;;;;;;;13.55;4.35;;;;;;;16.92;100.00;100493.41;5997083;28;20750;-69
2023/09/13 00:57:40;;;;;;;9.00;4.03;;;;;;;17.22;100.00;100497.56;6005095;28;20042;-69
2023/09/13 01:00:35;;;;;;;9.30;4.60;;;;;;;17.23;100.00;100503.75;6000533;28;20022;-69
2023/09/13 01:03:31;;;;;;;11.70;4.88;;;;;;;17.15;100.00;100509.25;6002150;28;20282;-69
2023/09/13 01:06:27;;;;;;;7.97;4.15;;;;;;;17.31;100.00;100505.47;5997773;28;20449;-69
2023/09/13 01:09:22;;;;;;;7.93;4.10;;;;;;;17.27;100.00;100507.69;6005956;28;20118;-69
2023/09/13 01:12:18;;;;;;;12.27;4.13;;;;;;;17.21;100.00;100492.38;6004390;28;20142;-69
2023/09/13 01:15:13;;;;;;;8.90;4.00;;;;;;;17.12;100.00;100510.47;6003610;28;20306;-69
2023/09/13 01:18:13;;;;;;;10.65;3.83;;;;;;;17.04;100.00;100497.19;6001456;28;20113;-68
2023/09/13 01:21:13;;;;;;;7.63;4.68;;;;;;;17.29;100.00;100502.97;6002858;28;20030;-69
2023/09/13 01:24:34;;;;;;;10.00;5.15;;;;;;;17.27;100.00;100515.75;6016153;28;20418;-68
2023/09/13 01:27:49;;;;;;;7.50;4.07;;;;;;;17.35;100.00;100517.44;6003856;28;20038;-68
2023/09/13 01:30:44;;;;;;;10.70;4.30;;;;;;;17.26;100.00;100508.72;6004443;28;20030;-68
2023/09/13 01:33:44;;;;;;;10.35;3.83;;;;;;;17.11;100.00;100507.97;6003229;28;20125;-68
2023/09/13 01:36:41;;;;;;;14.40;3.88;;;;;;;17.15;100.00;100495.84;5995104;28;20039;-68
2023/09/13 01:39:36;;;;;;;15.00;4.50;;;;;;;17.14;100.00;100488.84;5996903;28;20079;-68
2023/09/13 01:42:32;;;;;;;9.30;4.13;;;;;;;16.91;100.00;100475.66;6004177;28;20629;-68
2023/09/13 01:45:28;;;;;;;7.28;4.10;;;;;;;16.97;100.00;100469.53;6002915;28;20036;-68
2023/09/13 01:48:24;;;;;;;7.68;3.80;;;;;;;16.97;100.00;100468.69;5999507;28;20034;-68
2023/09/13 01:51:20;;;;;;;9.50;4.57;;;;;;;16.85;100.00;100464.91;6002213;28;20490;-67
2023/09/13 01:54:18;;;;;;;8.15;3.75;;;;;;;16.75;100.00;100453.66;6002252;28;20042;-67
2023/09/13 01:57:14;;;;;;;7.70;4.32;;;;;;;16.77;100.00;100455.13;6003839;28;20074;-67
2023/09/13 02:00:09;;;;;;;7.90;4.37;;;;;;;16.93;100.00;100451.38;6003716;28;20031;-67
2023/09/13 02:03:05;;;;;;;10.38;3.88;;;;;;;17.16;100.00;100451.94;6002880;28;20263;-68
2023/09/13 02:06:00;;;;;;;9.63;4.78;;;;;;;17.10;100.00;100458.09;6002762;28;20570;-68
2023/09/13 02:08:56;;;;;;;8.90;4.20;;;;;;;17.02;100.00;100455.53;6004928;28;20507;-67
2023/09/13 02:11:51;;;;;;;7.57;4.30;;;;;;;17.08;100.00;100465.50;6003447;28;20058;-67
2023/09/13 02:14:46;;;;;;;7.30;4.20;;;;;;;17.02;100.00;100466.25;6001793;28;20574;-67
2023/09/13 02:17:41;;;;;;;7.50;4.27;;;;;;;16.96;100.00;100456.34;6002713;28;20041;-67
2023/09/13 02:20:37;;;;;;;9.60;4.33;;;;;;;16.96;100.00;100440.28;6003062;28;20085;-67
2023/09/13 02:23:32;;;;;;;12.87;5.20;;;;;;;17.02;100.00;100450.19;5996780;28;20043;-67
2023/09/13 02:26:27;;;;;;;8.30;4.40;;;;;;;16.89;100.00;100431.34;6000879;28;20098;-67
2023/09/13 02:29:23;;;;;;;8.20;4.30;;;;;;;16.86;100.00;100439.75;5990955;28;20471;-68
2023/09/13 02:32:18;;;;;;;8.25;5.15;;;;;;;16.87;100.00;100436.91;6002733;28;20329;-67
2023/09/13 02:35:14;;;;;;;8.43;4.63;;;;;;;16.83;100.00;100438.28;6001225;28;20049;-67
2023/09/13 02:38:09;;;;;;;10.20;4.90;;;;;;;16.94;100.00;100442.28;5994622;28;20039;-67
2023/09/13 02:41:05;;;;;;;8.93;4.53;;;;;;;16.84;100.00;100447.16;6002492;28;20031;-67
2023/09/13 02:44:00;;;;;;;9.03;4.40;;;;;;;17.14;100.00;100464.72;6001721;28;20031;-67
2023/09/13 02:46:56;;;;;;;8.90;4.37;;;;;;;17.04;100.00;100469.59;6002422;28;20043;-66
2023/09/13 02:49:51;;;;;;;7.95;4.65;;;;;;;17.18;100.00;100452.56;6002530;28;20023;-66
2023/09/13 02:52:46;;;;;;;7.67;3.77;;;;;;;17.03;100.00;100457.22;6002375;28;20572;-67
2023/09/13 02:55:42;;;;;;;7.33;3.70;;;;;;;16.87;100.00;100468.22;6001125;28;20031;-66
2023/09/13 02:58:37;;;;;;;8.33;4.20;;;;;;;17.10;100.00;100458.09;6002576;28;20030;-66
2023/09/13 03:01:32;;;;;;;9.57;4.68;;;;;;;17.31;100.00;100470.63;6002123;28;20022;-66
2023/09/13 03:04:28;;;;;;;7.63;4.27;;;;;;;16.99;100.00;100478.19;6001343;28;20113;-66
2023/09/13 03:07:23;;;;;;;7.40;3.87;;;;;;;16.77;100.00;100467.72;5997480;28;20035;-65
2023/09/13 03:10:18;;;;;;;7.20;3.47;;;;;;;16.79;100.00;100481.72;5999564;28;20274;-66
2023/09/13 03:13:13;;;;;;;8.90;4.10;;;;;;;16.70;100.00;100482.88;6001297;28;20034;-66
2023/09/13 03:16:16;;;;;;;7.57;4.20;;;;;;;16.78;100.00;100477.38;6001032;28;20489;-66
2023/09/13 03:19:11;;;;;;;8.05;4.25;;;;;;;16.77;100.00;100478.44;6002404;28;20031;-66
2023/09/13 03:22:06;;;;;;;8.60;3.77;;;;;;;16.83;100.00;100466.91;5998724;28;20041;-66
2023/09/13 03:25:05;;;;;;;7.28;4.38;;;;;;;16.86;100.00;100466.53;5999907;28;20031;-66
2023/09/13 03:28:00;;;;;;;9.63;4.40;;;;;;;17.00;100.00;100481.72;5994043;28;20118;-67
2023/09/13 03:30:55;;;;;;;8.90;4.57;;;;;;;16.96;100.00;100475.91;6002093;28;20039;-67
2023/09/13 03:33:52;;;;;;;8.57;4.53;;;;;;;16.92;100.00;100481.84;6001422;28;20501;-67
2023/09/13 03:36:48;;;;;;;9.80;5.43;;;;;;;16.89;100.00;100482.22;6001248;28;20378;-67
2023/09/13 03:39:43;;;;;;;10.47;4.80;;;;;;;16.77;100.00;100470.38;6003517;28;20038;-66
2023/09/13 03:42:38;;;;;;;15.18;5.82;;;;;;;16.78;100.00;100477.38;6006469;28;20097;-68
2023/09/13 03:45:34;;;;;;;10.40;6.03;;;;;;;16.84;100.00;100495.38;6001719;28;20035;-66
2023/09/13 03:48:30;;;;;;;8.98;5.10;;;;;;;16.80;100.00;100491.41;5997485;28;20041;-67
2023/09/13 03:51:25;;;;;;;9.48;5.20;;;;;;;16.76;100.00;100482.13;5997338;28;20114;-66
2023/09/13 03:54:22;;;;;;;9.70;5.47;;;;;;;16.81;100.00;100501.13;5999771;28;20031;-66
2023/09/13 03:57:17;;;;;;;10.18;5.13;;;;;;;16.88;100.00;100493.94;5999540;28;20384;-67
2023/09/13 04:00:15;;;;;;;9.37;5.03;;;;;;;16.82;100.00;100494.75;6006576;28;20023;-66
2023/09/13 04:03:11;;;;;;;9.98;5.55;;;;;;;16.95;100.00;100497.53;6006199;28;21470;-67
2023/09/13 04:06:06;;;;;;;13.32;5.82;;;;;;;16.86;100.00;100509.41;6005389;28;20058;-66
2023/09/13 04:09:02;;;;;;;10.97;5.33;;;;;;;16.79;100.00;100487.94;6001082;28;20034;-66
2023/09/13 04:11:57;;;;;;;10.20;5.50;;;;;;;16.80;100.00;100491.41;6004678;28;20482;-66
2023/09/13 04:14:52;;;;;;;13.30;6.67;;;;;;;16.79;100.00;100514.72;6005387;28;20114;-67
2023/09/13 04:17:48;;;;;;;12.40;6.53;;;;;;;16.70;100.00;100497.09;6002744;28;20030;-66
2023/09/13 04:20:46;;;;;;;11.03;5.87;;;;;;;16.63;100.00;100498.88;6004440;28;20023;-66
2023/09/13 04:23:42;;;;;;;12.10;6.70;;;;;;;16.66;100.00;100507.34;6005235;28;20088;-66
2023/09/13 04:26:37;;;;;;;12.80;5.70;;;;;;;16.68;100.00;100507.19;5994997;28;20034;-66
2023/09/13 04:29:32;;;;;;;14.20;5.60;;;;;;;16.62;100.00;100506.09;6005698;28;20050;-66
2023/09/13 04:32:27;;;;;;;15.40;6.10;;;;;;;16.63;100.00;100513.09;6004914;28;20054;-66
2023/09/13 04:35:23;;;;;;;13.33;6.47;;;;;;;16.67;100.00;100516.22;6004915;28;20027;-67
2023/09/13 04:38:18;;;;;;;14.50;6.97;;;;;;;16.60;100.00;100521.50;6003239;28;20027;-66
2023/09/13 04:41:15;;;;;;;11.33;6.10;;;;;;;16.62;100.00;100526.66;6000322;28;20506;-67
2023/09/13 04:44:10;;;;;;;16.17;7.38;;;;;;;16.62;100.00;100538.22;6004812;28;20106;-67
2023/09/13 04:47:05;;;;;;;16.17;7.90;;;;;;;16.64;100.00;100538.00;6005141;28;20034;-66
2023/09/13 04:50:02;;;;;;;16.10;8.40;;;;;;;16.57;100.00;100531.78;6016942;28;20466;-66
2023/09/13 04:52:57;;;;;;;16.02;7.72;;;;;;;16.59;100.00;100530.56;6004547;28;20482;-66
2023/09/13 04:55:52;;;;;;;16.00;7.90;;;;;;;16.57;100.00;100529.09;6004321;28;20042;-67
2023/09/13 04:58:48;;;;;;;13.03;6.87;;;;;;;16.62;100.00;100537.38;6005257;28;20027;-67
2023/09/13 05:01:44;;;;;;;14.10;7.03;;;;;;;16.62;100.00;100529.34;6004893;28;20034;-66
2023/09/13 05:04:39;;;;;;;13.05;6.93;;;;;;;16.73;100.00;100531.53;6004236;28;20662;-67
2023/09/13 05:07:35;;;;;;;15.80;7.75;;;;;;;16.60;100.00;100521.50;5999452;28;20109;-66
2023/09/13 05:10:31;;;;;;;16.40;7.13;;;;;;;16.63;100.00;100515.75;5995056;28;20490;-66
2023/09/13 05:13:26;;;;;;;15.73;7.57;;;;;;;16.75;100.00;100520.63;5985792;28;20474;-66
2023/09/13 05:16:22;;;;;;;17.60;7.10;;;;;;;16.71;100.00;100525.53;6004162;28;20042;-67
2023/09/13 05:19:18;;;;;;;17.02;8.18;;;;;;;16.77;100.00;100532.00;6003468;28;20102;-66
2023/09/13 05:22:13;;;;;;;16.45;7.85;;;;;;;16.76;100.00;100525.78;6004555;28;20034;-66
2023/09/13 05:25:09;;;;;;;16.42;8.10;;;;;;;16.86;100.00;100541.53;6003568;28;20526;-66
2023/09/13 05:28:04;;;;;;;21.73;9.83;;;;;;;16.76;100.00;100531.16;6002580;28;20397;-66
2023/09/13 05:31:00;;;;;;;21.00;10.13;;;;;;;16.86;100.00;100536.19;6001526;28;20385;-66
2023/09/13 05:33:55;;;;;;;23.35;10.15;;;;;;;16.90;100.00;100540.16;6002951;28;20065;-66
2023/09/13 05:36:51;;;;;;;24.20;10.90;;;;;;;16.87;100.00;100535.19;5997491;28;20372;-66
2023/09/13 05:39:46;;;;;;;26.67;10.90;;;;;;;16.94;100.00;100544.94;6001412;28;20508;-66
2023/09/13 05:42:41;;;;;;;27.47;11.17;;;;;;;16.97;100.00;100547.22;6004055;28;20550;-68
2023/09/13 05:45:37;;;;;;;27.83;10.93;;;;;;;17.03;100.00;100559.88;6003027;28;20266;-68
2023/09/13 05:48:32;;;;;;;28.37;11.60;;;;;;;17.10;100.00;100563.44;6003960;28;20031;-66
2023/09/13 05:51:29;;;;;;;26.42;11.90;;;;;;;17.04;100.00;100555.34;6003625;28;20113;-66
2023/09/13 05:54:25;;;;;;;25.17;11.35;;;;;;;17.05;100.00;100559.66;6001334;28;20035;-66
2023/09/13 05:57:20;;;;;;;26.55;11.45;;;;;;;17.13;100.00;100565.72;6003524;28;20489;-66
2023/09/13 06:00:15;;;;;;;64.20;14.77;;;;;;;17.16;100.00;100559.16;6003498;28;20122;-66
2023/09/13 06:03:10;;;;;;;25.60;11.70;;;;;;;17.26;100.00;100565.84;5998266;28;20026;-66
2023/09/13 06:06:06;;;;;;;24.80;11.20;;;;;;;17.16;100.00;100545.75;6002647;28;20394;-66
2023/09/13 06:09:03;;;;;;;22.60;10.57;;;;;;;17.14;100.00;100556.69;6006537;28;20133;-66
2023/09/13 06:12:01;;;;;;;26.80;10.43;;;;;;;17.13;100.00;100559.53;6003362;28;20015;-66
2023/09/13 06:14:59;;;;;;;26.02;11.38;;;;;;;17.25;100.00;100563.38;6002465;28;20041;-66
2023/09/13 06:17:55;;;;;;;28.98;12.23;;;;;;;17.27;100.00;100566.66;5995652;28;20069;-66
2023/09/13 06:20:50;;;;;;;25.55;11.27;;;;;;;17.37;100.00;100583.25;6002939;28;20023;-66
2023/09/13 06:23:46;;;;;;;27.80;12.27;;;;;;;17.32;100.00;100580.31;6002351;28;20034;-66
2023/09/13 06:26:41;;;;;;;23.65;10.85;;;;;;;17.31;100.00;100576.00;6002485;28;20045;-66
2023/09/13 06:29:36;;;;;;;27.05;10.75;;;;;;;17.30;100.00;100576.19;6002544;28;20474;-66
2023/09/13 06:32:32;;;;;;;29.43;12.17;;;;;;;17.40;100.00;100574.81;5997063;28;20045;-66
2023/09/13 06:35:27;;;;;;;23.87;11.00;;;;;;;17.36;100.00;100575.41;6001890;28;20027;-66
2023/09/13 06:38:22;;;;;;;24.23;11.40;;;;;;;17.48;100.00;100589.94;6002936;28;20272;-66
2023/09/13 06:41:18;;;;;;;25.10;10.00;;;;;;;17.51;100.00;100608.31;6002660;28;20821;-66
2023/09/13 06:44:14;;;;;;;26.08;10.93;;;;;;;17.46;100.00;100608.06;6001697;28;20471;-66
2023/09/13 06:47:09;;;;;;;25.23;9.97;;;;;;;17.62;100.00;100607.84;6002259;28;20039;-66
2023/09/13 06:50:05;;;;;;;25.57;10.30;;;;;;;17.66;100.00;100619.84;6001670;28;20027;-65
2023/09/13 06:53:00;;;;;;;21.95;9.80;;;;;;;17.54;100.00;100616.00;6002155;28;20109;-66
2023/09/13 06:55:56;;;;;;;21.13;9.50;;;;;;;17.56;100.00;100625.53;6001736;28;20049;-66
2023/09/13 06:58:53;;;;;;;20.38;10.15;;;;;;;17.53;100.00;100620.53;6001669;28;20041;-66
2023/09/13 07:01:48;;;;;;;21.88;11.00;;;;;;;17.63;100.00;100622.91;6002016;28;20034;-65
2023/09/13 07:04:43;;;;;;;22.53;10.33;;;;;;;17.68;100.00;100637.41;6000950;28;20398;-65
2023/09/13 07:07:38;;;;;;;18.67;8.97;;;;;;;17.49;100.00;100616.56;5999393;28;20030;-65
2023/09/13 07:10:34;;;;;;;18.03;7.97;;;;;;;17.61;100.00;100617.72;6005746;28;20125;-65
2023/09/13 07:13:29;;;;;;;19.50;9.37;;;;;;;17.63;100.00;100620.22;6000839;28;20027;-65
2023/09/13 07:16:25;;;;;;;18.17;9.00;;;;;;;17.79;100.00;100626.13;5997387;28;20944;-65
2023/09/13 07:19:22;;;;;;;17.15;9.05;;;;;;;17.93;100.00;100637.81;5996464;28;20653;-65
2023/09/13 07:22:17;;;;;;;15.13;8.10;;;;;;;18.11;100.00;100645.34;6002093;28;20125;-65
2023/09/13 07:25:12;;;;;;;14.57;7.20;;;;;;;18.29;100.00;100619.63;6000804;28;20085;-65
2023/09/13 07:28:07;;;;;;;13.67;7.20;;;;;;;18.48;100.00;100611.94;6001621;28;20023;-65
2023/09/13 07:31:07;;;;;;;11.10;6.60;;;;;;;18.73;100.00;100640.75;5993067;28;20031;-65
2023/09/13 07:34:02;;;;;;;9.88;6.15;;;;;;;18.84;100.00;100636.66;5990046;28;20062;-66
2023/09/13 07:36:58;;;;;;;10.85;6.38;;;;;;;19.16;100.00;100627.84;5980654;28;20382;-66
2023/09/13 07:39:53;;;;;;;10.17;5.17;;;;;;;18.95;100.00;100628.84;5985590;28;20040;-66
2023/09/13 07:42:48;;;;;;;9.87;5.00;;;;;;;18.99;100.00;100629.28;6001342;28;20266;-65
2023/09/13 07:45:45;;;;;;;11.67;6.17;;;;;;;19.14;100.00;100653.28;5983594;28;20070;-65
2023/09/13 07:48:40;;;;;;;7.60;4.65;;;;;;;19.40;100.00;100648.84;5989656;28;20387;-65
2023/09/13 07:51:36;;;;;;;10.93;4.87;;;;;;;19.19;100.00;100640.06;5980501;28;20035;-66
2023/09/13 07:54:31;;;;;;;7.17;4.67;;;;;;;19.21;100.00;100660.38;5988400;28;20274;-65
2023/09/13 07:57:26;;;;;;;9.50;3.83;;;;;;;19.02;100.00;100656.56;6001386;28;20034;-66
2023/09/13 08:00:22;;;;;;;8.63;4.47;;;;;;;19.08;100.00;100678.31;6000516;28;20046;-66
2023/09/13 08:03:17;;;;;;;7.93;4.03;;;;;;;18.90;100.00;100674.31;6001202;28;20027;-65
2023/09/13 08:06:12;;;;;;;7.30;4.33;;;;;;;18.77;100.00;100663.53;5994679;28;20039;-65
2023/09/13 08:09:08;;;;;;;10.63;5.75;;;;;;;18.93;100.00;100668.53;6005382;28;20640;-65
2023/09/13 08:12:04;;;;;;;7.90;4.43;;;;;;;19.36;100.00;100676.31;6001271;28;20085;-65
2023/09/13 08:14:59;;;;;;;7.47;4.65;;;;;;;19.62;100.00;100672.88;5993413;28;20039;-65
2023/09/13 08:17:54;;;;;;;9.40;5.10;;;;;;;19.75;100.00;100691.72;5994935;28;20042;-65
2023/09/13 08:20:50;;;;;;;7.10;4.77;;;;;;;19.87;100.00;100685.50;6000126;28;20027;-65
2023/09/13 08:23:45;;;;;;;7.85;4.50;;;;;;;20.21;100.00;100695.22;5996026;28;20446;-65
2023/09/13 08:26:41;;;;;;;7.97;4.40;;;;;;;20.43;100.00;100691.28;5998707;28;20093;-65
2023/09/13 08:29:37;;;;;;;7.40;4.10;;;;;;;20.44;100.00;100701.00;6004675;28;20270;-65
2023/09/13 08:32:32;;;;;;;8.45;4.95;;;;;;;20.40;100.00;100704.34;5997120;28;20454;-66
2023/09/13 08:35:27;;;;;;;7.20;4.77;;;;;;;20.27;100.00;100697.13;6004756;28;20042;-65
2023/09/13 08:38:23;;;;;;;7.10;4.03;;;;;;;20.32;100.00;100704.56;6003745;28;20313;-65
2023/09/13 08:41:18;;;;;;;7.20;4.23;;;;;;;20.44;100.00;100700.16;6005019;28;20448;-66
2023/09/13 08:44:13;;;;;;;7.00;4.40;;;;;;;20.59;100.00;100714.25;6004834;28;20034;-66
2023/09/13 08:47:10;;;;;;;6.80;4.82;;;;;;;21.13;100.00;100708.47;6003662;28;20089;-66
2023/09/13 08:50:07;;;;;;;7.35;4.70;;;;;;;21.74;100.00;100722.25;6020289;28;20097;-66
2023/09/13 08:53:03;;;;;;;7.22;4.30;;;;;;;21.25;100.00;100731.06;6003858;28;20035;-66
2023/09/13 08:55:59;;;;;;;9.30;4.82;;;;;;;20.88;100.00;100729.91;6003976;28;20031;-66
2023/09/13 08:58:55;;;;;;;6.80;4.75;;;;;;;20.95;100.00;100738.00;6004921;28;20355;-65
2023/09/13 09:01:51;;;;;;;9.23;5.75;;;;;;;20.72;100.00;100743.84;6004610;28;20030;-65
2023/09/13 09:04:49;;;;;;;8.63;5.45;;;;;;;21.14;100.00;100729.03;6015018;28;20038;-66
2023/09/13 09:07:45;;;;;;;7.50;5.55;;;;;;;21.46;100.00;100735.28;6000906;28;20560;-65
2023/09/13 09:10:42;;;;;;;8.48;4.90;;;;;;;21.68;100.00;100733.91;6007952;28;20720;-66
2023/09/13 09:13:38;;;;;;;7.90;5.07;;;;;;;21.60;100.00;100723.38;6002980;28;20418;-66
2023/09/13 09:16:35;;;;;;;7.15;5.10;;;;;;;21.67;100.00;100741.19;6004127;28;20042;-66
2023/09/13 09:19:31;;;;;;;6.35;4.72;;;;;;;21.71;100.00;100736.19;6001888;28;20062;-66
2023/09/13 09:22:29;;;;;;;8.80;5.20;;;;;;;21.89;100.00;100723.63;6003627;28;20065;-66
2023/09/13 09:25:25;;;;;;;9.70;5.03;;;;;;;22.15;100.00;100733.34;6003521;28;20478;-66
2023/09/13 09:28:22;;;;;;;8.15;5.03;;;;;;;22.09;100.00;100739.66;6004353;28;20050;-66
2023/09/13 09:31:19;;;;;;;8.15;4.82;;;;;;;22.47;100.00;100726.84;6003885;28;20068;-66
2023/09/13 09:34:15;;;;;;;6.07;4.15;;;;;;;22.22;100.00;100728.75;6003737;28;20359;-66
2023/09/13 09:37:10;;;;;;;6.50;3.60;;;;;;;21.77;100.00;100729.88;5994415;28;20059;-66
2023/09/13 09:40:15;;;;;;;4.97;3.42;;;;;;;21.54;100.00;100735.88;6004119;28;20282;-66
2023/09/13 09:43:11;;;;;;;5.53;2.92;;;;;;;21.49;100.00;100737.56;6002374;28;20063;-66
2023/09/13 09:46:06;;;;;;;4.87;3.10;;;;;;;21.72;100.00;100737.81;6003204;28;20039;-66
2023/09/13 09:49:03;;;;;;;7.00;3.43;;;;;;;21.90;100.00;100736.06;6004136;28;20023;-66
2023/09/13 09:51:58;;;;;;;3.75;2.58;;;;;;;21.92;100.00;100735.84;5995094;28;20316;-66
2023/09/13 09:54:53;;;;;;;4.55;3.00;;;;;;;22.46;100.00;100738.69;6003062;28;20030;-65
2023/09/13 09:57:50;;;;;;;5.10;2.37;;;;;;;22.66;100.00;100743.13;6002214;28;20066;-66
2023/09/13 10:00:47;;;;;;;4.07;2.50;;;;;;;22.28;100.00;100743.25;6003485;28;20298;-66
2023/09/13 10:03:42;;;;;;;5.50;2.72;;;;;;;21.56;100.00;100738.34;6003122;28;20030;-66
2023/09/13 10:06:55;;;;;;;5.30;2.35;;;;;;;21.48;100.00;100742.13;6002226;28;20066;-66
2023/09/13 10:09:50;;;;;;;3.60;2.20;;;;;;;21.41;100.00;100740.50;6006738;28;20045;-67
2023/09/13 10:12:47;;;;;;;4.88;2.47;;;;;;;21.31;100.00;100746.34;6003340;28;20433;-66
2023/09/13 10:15:43;;;;;;;4.78;3.10;;;;;;;21.31;100.00;100741.81;6002560;28;20391;-66
2023/09/13 10:18:44;;;;;;;4.65;2.50;;;;;;;21.12;100.00;100753.50;6001805;28;20034;-67
2023/09/13 10:21:40;;;;;;;5.00;3.10;;;;;;;20.88;100.00;100750.66;6003421;28;20109;-67
2023/09/13 10:24:39;;;;;;;5.57;3.45;;;;;;;20.79;100.00;100763.53;6001462;28;20367;-66
2023/09/13 10:27:36;;;;;;;4.50;3.25;;;;;;;20.48;100.00;100768.78;6002113;28;20026;-66
2023/09/13 10:30:33;;;;;;;7.82;3.67;;;;;;;20.11;100.00;100778.31;6017833;28;20058;-66
2023/09/13 10:33:30;;;;;;;6.22;3.88;;;;;;;19.75;100.00;100780.53;6001885;28;20117;-66
2023/09/13 10:36:34;;;;;;;3.95;2.50;;;;;;;19.34;100.00;100784.09;6002134;28;20027;-67
2023/09/13 10:39:33;;;;;;;4.30;2.70;;;;;;;19.29;100.00;100772.28;6001280;28;20035;-66
2023/09/13 10:42:29;;;;;;;4.15;2.33;;;;;;;18.98;100.00;100780.81;6001883;28;20350;-66
2023/09/13 10:45:25;;;;;;;5.00;2.38;;;;;;;19.03;100.00;100792.63;5996051;28;20039;-67
2023/09/13 10:48:20;;;;;;;7.00;2.65;;;;;;;18.78;100.00;100798.72;6002602;28;20027;-70
2023/09/13 10:51:16;;;;;;;5.07;2.47;;;;;;;18.51;100.00;100815.66;6002527;28;20081;-71
2023/09/13 10:54:12;;;;;;;5.25;2.70;;;;;;;18.18;100.00;100807.31;6001920;28;20422;-68
2023/09/13 10:57:08;;;;;;;4.95;2.42;;;;;;;18.20;100.00;100815.97;6002495;28;20038;-67
2023/09/13 11:00:10;;;;;;;4.53;2.72;;;;;;;18.26;100.00;100812.53;6001621;28;20027;-67
2023/09/13 11:03:05;;;;;;;3.67;2.15;;;;;;;18.19;100.00;100820.50;6002483;28;20026;-66
2023/09/13 11:06:02;;;;;;;3.42;1.70;;;;;;;18.02;100.00;100831.72;6000732;28;20030;-66
2023/09/13 11:09:10;;;;;;;3.90;1.73;;;;;;;17.71;100.00;100835.53;6003696;28;20033;-68
2023/09/13 11:12:06;;;;;;;3.42;2.10;;;;;;;17.61;100.00;100831.47;6002536;28;20039;-68
2023/09/13 11:15:15;;;;;;;4.38;2.50;;;;;;;17.71;100.00;100835.53;6001166;28;20065;-67
2023/09/13 11:18:14;;;;;;;5.15;2.97;;;;;;;17.82;100.00;100851.13;6000478;28;20493;-68
2023/09/13 11:21:26;;;;;;;4.00;2.55;;;;;;;17.84;100.00;100857.13;6016643;28;20042;-67
2023/09/13 11:24:38;;;;;;;5.00;2.67;;;;;;;17.80;100.00;100869.25;5992313;28;20035;-66
2023/09/13 11:27:34;;;;;;;3.80;2.33;;;;;;;17.73;100.00;100848.72;5986410;28;20034;-67
2023/09/13 11:30:50;;;;;;;3.60;2.10;;;;;;;17.95;100.00;100881.78;5998624;28;20077;-67
2023/09/13 11:33:55;;;;;;;3.75;2.13;;;;;;;17.85;100.00;100874.06;5997946;28;20114;-67
2023/09/13 11:37:07;;;;;;;4.10;1.88;;;;;;;17.99;100.00;100891.13;6001661;28;20031;-67
2023/09/13 11:40:10;;;;;;;3.35;1.83;;;;;;;17.83;100.00;100876.91;6001520;28;20521;-67
2023/09/13 11:43:09;;;;;;;3.80;1.98;;;;;;;17.95;100.00;100897.88;6001262;28;20035;-67
2023/09/13 11:46:05;;;;;;;4.57;2.13;;;;;;;17.89;100.00;100887.91;6001219;28;20027;-67
2023/09/13 11:49:00;;;;;;;3.67;2.17;;;;;;;17.67;100.00;100890.53;6001570;28;20030;-67
2023/09/13 11:51:57;;;;;;;4.38;2.20;;;;;;;17.61;100.00;100888.59;5992583;28;20042;-67
2023/09/13 11:54:54;;;;;;;4.50;2.65;;;;;;;17.59;100.00;100904.06;5974619;28;20082;-67
2023/09/13 11:57:50;;;;;;;4.05;2.53;;;;;;;17.73;100.00;100897.00;5993287;28;20672;-67
2023/09/13 12:00:46;;;;;;;4.90;2.55;;;;;;;17.64;100.00;100890.91;5999181;28;20480;-68
2023/09/13 12:03:43;;;;;;;5.60;2.70;;;;;;;17.81;100.00;100902.28;6002946;28;20113;-67
2023/09/13 12:06:42;;;;;;;5.82;3.10;;;;;;;17.86;100.00;100891.81;6002367;28;20274;-67
2023/09/13 12:09:38;;;;;;;5.57;2.80;;;;;;;17.79;100.00;100901.63;6005393;28;20413;-66
2023/09/13 12:12:41;;;;;;;3.73;2.30;;;;;;;17.73;100.00;100911.25;6000543;28;20031;-66
2023/09/13 12:15:56;;;;;;;6.43;2.80;;;;;;;17.63;100.00;100918.78;5991122;28;20123;-66
2023/09/13 12:18:51;;;;;;;4.70;2.97;;;;;;;17.63;100.00;100929.50;5995640;28;20061;-65
2023/09/13 12:21:47;;;;;;;8.70;2.57;;;;;;;17.54;100.00;100917.22;5995440;28;20039;-66
2023/09/13 12:24:52;;;;;;;4.40;2.53;;;;;;;17.47;100.00;100927.00;6001530;28;20070;-67
2023/09/13 12:27:47;;;;;;;3.78;2.10;;;;;;;17.80;100.00;100938.19;5991604;28;20041;-67
2023/09/13 12:30:42;;;;;;;3.90;1.97;;;;;;;17.54;100.00;100933.28;5994110;28;20030;-67
2023/09/13 12:33:42;;;;;;;3.55;1.80;;;;;;;17.28;100.00;100938.25;5992728;28;20034;-67
2023/09/13 12:36:38;;;;;;;3.10;1.63;;;;;;;17.30;100.00;100938.91;5999575;28;20106;-66
2023/09/13 12:39:34;;;;;;;4.00;1.85;;;;;;;17.16;100.00;100947.75;5999438;28;20039;-66
2023/09/13 12:42:29;;;;;;;3.70;2.07;;;;;;;17.20;100.00;100951.75;6002495;28;20097;-66
2023/09/13 12:45:29;;;;;;;5.03;2.53;;;;;;;17.14;100.00;100942.59;6001712;28;20047;-65
2023/09/13 12:48:25;;;;;;;;;;;;;;;16.94;100.00;100962.03;5998288;28;20478;-65
2023/09/13 12:51:22;;;;;;;7.10;2.35;;;;;;;17.14;100.00;100971.25;6015652;28;19968;-65
2023/09/13 12:54:18;;;;;;;5.93;2.60;;;;;;;16.84;100.00;100973.00;5994881;28;20061;-65
2023/09/13 12:57:13;;;;;;;6.87;3.17;;;;;;;16.93;100.00;100965.75;5993974;28;20042;-66
2023/09/13 13:00:12;;;;;;;7.70;3.03;;;;;;;16.89;100.00;100975.13;6002008;28;20290;-65
2023/09/13 13:03:07;;;;;;;7.28;3.55;;;;;;;16.72;100.00;100971.75;6001886;28;20110;-65
2023/09/13 13:06:04;;;;;;;7.90;4.20;;;;;;;16.75;100.00;100970.56;6000935;28;20038;-65
2023/09/13 13:09:04;;;;;;;10.30;5.20;;;;;;;16.80;100.00;100993.13;6005682;28;20050;-66
2023/09/13 13:12:00;;;;;;;;;;;;;;;16.89;100.00;101007.28;5999324;28;20073;-65
2023/09/13 13:14:56;;;;;;;14.10;5.43;;;;;;;16.71;100.00;100998.72;5997932;28;20337;-65
2023/09/13 13:17:51;;;;;;;12.55;5.80;;;;;;;16.61;100.00;100997.13;6001674;28;20493;-65
2023/09/13 13:20:47;;;;;;;13.07;6.00;;;;;;;16.28;100.00;100998.28;6001653;28;20486;-65
2023/09/13 13:23:44;;;;;;;12.82;5.88;;;;;;;16.20;100.00;101000.19;5999751;28;20318;-65
2023/09/13 13:26:39;;;;;;;15.52;5.93;;;;;;;16.15;100.00;101002.53;6000343;28;20030;-66
2023/09/13 13:29:36;;;;;;;11.67;6.03;;;;;;;15.92;100.00;101015.88;6001631;28;20390;-65